Time;durP1;ratioP1;P1;durP2;ratioP2;P2;SDS_P1;SDS_P2;PMS_P1;PMS_P2;Temp;Humidity;BMP_temperature;BMP_pressure;BME280_temperature;BME280_humidity;BME280_pressure;Samples;Min_cycle;Max_cycle;Signal;HPM_P1;HPM_P2
2022/12/29 00:01:13;;;;;;;8.50;5.60;;;;;;;5.57;79.63;100218.02;107546;1253;98791;-57
2022/12/29 00:03:56;;;;;;;10.30;5.80;;;;;;;5.59;79.81;100216.55;107590;1253;86517;-58
2022/12/29 00:06:35;;;;;;;10.80;5.60;;;;;;;5.61;79.77;100213.67;107539;1253;95084;-60
2022/12/29 00:09:16;;;;;;;11.10;6.50;;;;;;;5.63;79.70;100215.89;107587;1254;78253;-59
2022/12/29 00:11:58;;;;;;;10.10;6.50;;;;;;;5.67;79.76;100221.36;107627;1253;81948;-59
2022/12/29 00:17:42;;;;;;;11.30;5.80;;;;;;;5.63;79.55;100208.73;107552;1256;88289;-59
2022/12/29 00:35:14;;;;;;;10.70;5.50;;;;;;;5.66;79.52;100205.45;107547;1253;95104;-58
2022/12/29 00:46:41;;;;;;;;;;;;;;;5.57;79.38;100211.41;107594;1254;87660;-59
2022/12/29 00:49:34;;;;;;;8.60;5.50;;;;;;;5.60;79.56;100209.89;107598;1257;94913;-59
2022/12/29 00:52:12;;;;;;;10.10;6.20;;;;;;;5.61;79.43;100207.77;107604;1253;79211;-52
2022/12/29 00:54:56;;;;;;;10.50;5.60;;;;;;;5.65;79.37;100204.79;107597;1256;83096;-56
2022/12/29 00:57:31;;;;;;;10.60;5.70;;;;;;;5.67;79.27;100203.69;107540;1254;98547;-58
2022/12/29 01:00:10;;;;;;;9.60;5.70;;;;;;;5.66;79.20;100192.27;107559;1257;88936;-59
2022/12/29 01:02:47;;;;;;;10.40;5.90;;;;;;;5.65;79.28;100190.89;107567;1253;95212;-60
2022/12/29 01:05:25;;;;;;;10.20;6.00;;;;;;;5.64;79.34;100190.27;107561;1257;80085;-54
2022/12/29 01:08:05;;;;;;;10.00;6.00;;;;;;;5.62;79.36;100182.83;107582;1257;80659;-60
2022/12/29 01:10:40;;;;;;;8.20;5.50;;;;;;;5.62;79.20;100173.69;107545;1253;98247;-60
2022/12/29 01:13:15;;;;;;;8.40;5.10;;;;;;;5.63;79.16;100172.02;107581;1257;87042;-59
2022/12/29 01:15:56;;;;;;;8.90;5.50;;;;;;;5.63;79.32;100170.71;107562;1258;94010;-60
2022/12/29 01:18:40;;;;;;;10.00;5.40;;;;;;;5.68;79.27;100168.58;107574;1254;80105;-56
2022/12/29 01:21:21;;;;;;;8.20;4.90;;;;;;;5.71;79.14;100165.98;107575;1253;83605;-52
2022/12/29 01:24:01;;;;;;;9.10;5.60;;;;;;;5.70;78.88;100165.90;107556;1253;97488;-54
2022/12/29 01:26:40;;;;;;;8.00;4.60;;;;;;;5.70;78.63;100163.13;107598;1254;88119;-59
2022/12/29 01:29:25;;;;;;;8.60;5.20;;;;;;;5.70;78.84;100162.08;107564;1254;95327;-59
2022/12/29 01:32:04;;;;;;;7.80;4.80;;;;;;;5.68;78.93;100159.80;107557;1257;81191;-60
2022/12/29 01:34:46;;;;;;;8.20;4.60;;;;;;;5.68;79.02;100157.67;107585;1257;82003;-59
2022/12/29 01:37:34;;;;;;;7.80;4.50;;;;;;;5.70;78.66;100158.67;107547;1255;99912;-56
2022/12/29 01:40:14;;;;;;;7.40;4.30;;;;;;;5.71;78.67;100151.11;107552;1256;89465;-60
2022/12/29 01:43:02;;;;;;;7.50;4.80;;;;;;;5.74;78.69;100141.52;107572;1257;95351;-58
2022/12/29 01:45:41;;;;;;;7.90;4.80;;;;;;;5.78;78.77;100140.45;107547;1254;78791;-59
2022/12/29 01:48:27;;;;;;;10.30;4.80;;;;;;;5.80;78.70;100133.86;107561;1254;82952;-50
2022/12/29 01:51:06;;;;;;;7.60;3.80;;;;;;;5.78;78.67;100137.28;107559;1254;98009;-59
2022/12/29 01:53:53;;;;;;;9.90;4.70;;;;;;;5.76;78.67;100139.45;107556;1256;88031;-59
2022/12/29 01:56:30;;;;;;;9.90;4.90;;;;;;;5.72;78.62;100135.62;107580;1257;95876;-58
2022/12/29 01:59:19;;;;;;;6.80;4.40;;;;;;;5.71;78.61;100130.03;107554;1257;79508;-58
2022/12/29 02:01:58;;;;;;;7.90;4.60;;;;;;;5.72;78.65;100127.21;107566;1254;82683;-57
2022/12/29 02:04:44;;;;;;;8.40;4.60;;;;;;;5.74;78.74;100115.77;107533;1257;97686;-52
2022/12/29 02:07:23;;;;;;;8.20;4.80;;;;;;;5.75;78.90;100123.90;107549;1254;88744;-59
2022/12/29 02:10:02;;;;;;;8.90;4.20;;;;;;;5.73;78.91;100125.64;107553;1254;95374;-60
2022/12/29 02:12:46;;;;;;;7.50;4.20;;;;;;;5.73;79.18;100126.61;107634;1257;78124;-59
2022/12/29 02:15:34;;;;;;;8.70;4.30;;;;;;;5.73;79.25;100132.88;107654;1254;82173;-57
2022/12/29 02:18:31;;;;;;;6.70;4.20;;;;;;;5.70;79.38;100136.55;107574;1256;99263;-55
2022/12/29 02:21:47;;;;;;;6.10;3.90;;;;;;;5.67;79.69;100140.78;107583;1254;86845;-59
2022/12/29 02:25:04;;;;;;;;;;;;;;;5.65;79.87;100133.55;107472;1257;95235;-61
2022/12/29 02:28:05;;;;;;;7.20;4.60;;;;;;;5.65;80.10;100127.98;107395;1254;82443;-56
2022/12/29 02:30:54;;;;;;;7.00;4.10;;;;;;;5.66;80.29;100126.24;107583;1254;82390;-59
2022/12/29 02:33:53;;;;;;;6.90;4.60;;;;;;;5.64;80.33;100127.81;107527;1254;98756;-59
2022/12/29 02:36:40;;;;;;;6.30;3.90;;;;;;;5.63;80.68;100136.98;107579;1257;89392;-59
2022/12/29 02:39:33;;;;;;;6.70;4.10;;;;;;;5.59;80.90;100136.66;107551;1257;94852;-58
2022/12/29 02:42:22;;;;;;;8.00;4.60;;;;;;;5.57;80.78;100141.38;107534;1257;79575;-58
2022/12/29 02:45:05;;;;;;;9.60;4.20;;;;;;;5.52;81.31;100143.85;107549;1254;82184;-60
2022/12/29 02:47:49;;;;;;;7.90;4.30;;;;;;;5.52;81.54;100144.22;107566;1254;98646;-53
2022/12/29 02:50:32;;;;;;;8.00;4.30;;;;;;;5.50;81.59;100147.13;107562;1257;89219;-60
2022/12/29 02:54:40;;;;;;;8.40;4.60;;;;;;;5.48;81.95;100140.40;107578;1253;94002;-60
2022/12/29 02:56:13;;;;;;;10.70;4.70;;;;;;;5.50;82.02;100148.04;107597;1257;80649;-48
2022/12/29 02:58:58;;;;;;;9.00;4.20;;;;;;;5.46;82.14;100149.23;107628;1254;80572;-48
2022/12/29 03:02:20;;;;;;;7.90;4.40;;;;;;;5.44;82.49;100146.58;107646;1256;97529;-59
2022/12/29 03:05:27;;;;;;;7.60;4.40;;;;;;;5.37;82.63;100146.48;107632;1254;88610;-57
2022/12/29 03:08:14;;;;;;;6.30;3.50;;;;;;;5.32;82.83;100144.20;107586;1254;94907;-61
2022/12/29 03:11:00;;;;;;;6.80;4.20;;;;;;;5.24;83.18;100143.77;107568;1253;78121;-59
2022/12/29 03:16:46;;;;;;;6.60;4.30;;;;;;;5.22;83.34;100134.17;107540;1254;99040;-60
2022/12/29 03:19:30;;;;;;;8.20;4.00;;;;;;;5.22;83.74;100122.23;107552;1254;87681;-60
2022/12/29 03:25:17;;;;;;;6.80;3.90;;;;;;;5.26;84.05;100094.33;107537;1254;83668;-59
2022/12/29 03:28:05;;;;;;;7.20;4.10;;;;;;;5.22;84.01;100093.55;107523;1256;81805;-60
2022/12/29 03:30:53;;;;;;;5.40;3.60;;;;;;;5.18;84.31;100081.77;107516;1255;98737;-61
2022/12/29 03:33:38;;;;;;;7.50;4.30;;;;;;;5.16;84.54;100074.21;107609;1254;88223;-54
2022/12/29 03:36:21;;;;;;;9.10;4.60;;;;;;;5.15;84.51;100069.43;107580;1254;95237;-59
2022/12/29 03:39:12;;;;;;;8.30;4.70;;;;;;;5.16;84.68;100053.33;107558;1257;81212;-60
2022/12/29 03:42:06;;;;;;;8.80;4.20;;;;;;;5.15;84.84;100032.14;107563;1253;83117;-60
2022/12/29 03:44:46;;;;;;;8.40;4.20;;;;;;;5.11;84.80;100040.67;107626;1255;98130;-59
2022/12/29 03:47:26;;;;;;;8.40;4.10;;;;;;;5.07;84.95;100085.13;107568;1256;88378;-59
2022/12/29 03:50:08;;;;;;;4.60;3.50;;;;;;;5.03;84.94;100083.21;107596;1253;95657;-59
2022/12/29 03:52:51;;;;;;;8.80;4.20;;;;;;;5.01;84.93;100080.45;107600;1254;80432;-60
2022/12/29 03:55:36;;;;;;;7.90;3.80;;;;;;;4.95;85.06;100075.04;107575;1256;81874;-58
2022/12/29 03:58:13;;;;;;;5.30;3.80;;;;;;;4.91;85.13;100071.37;107538;1255;98246;-53
2022/12/29 04:00:54;;;;;;;7.90;4.40;;;;;;;4.91;85.42;100072.98;107535;1254;88519;-60
2022/12/29 04:03:34;;;;;;;7.90;3.90;;;;;;;4.88;85.21;100076.41;107548;1254;92550;-59
2022/12/29 04:06:10;;;;;;;6.40;3.80;;;;;;;4.91;85.32;100066.86;107539;1254;82598;-59
2022/12/29 04:08:52;;;;;;;8.60;4.30;;;;;;;4.91;85.15;100068.63;107580;1253;83019;-60
2022/12/29 04:11:34;;;;;;;6.70;4.10;;;;;;;4.89;85.11;100055.31;107550;1256;98447;-57
2022/12/29 04:14:16;;;;;;;5.90;3.60;;;;;;;4.84;85.32;100053.02;107554;1254;88950;-58
2022/12/29 04:16:59;;;;;;;7.60;4.40;;;;;;;4.79;85.54;100060.52;107572;1254;94457;-57
2022/12/29 04:19:35;;;;;;;7.10;4.00;;;;;;;4.75;85.34;100056.43;107562;1254;78559;-58
2022/12/29 04:22:18;;;;;;;9.10;4.50;;;;;;;4.71;85.32;100067.71;107499;1254;82219;-59
2022/12/29 04:25:00;;;;;;;;;;;;;;;4.67;85.26;100063.88;107597;1254;98398;-60
2022/12/29 04:27:45;;;;;;;6.00;3.60;;;;;;;4.63;85.31;100062.72;107539;1256;88664;-57
2022/12/29 04:30:23;;;;;;;6.50;4.20;;;;;;;4.59;85.51;100047.09;107561;1254;95182;-59
2022/12/29 04:33:07;;;;;;;7.30;4.20;;;;;;;4.57;85.55;100035.91;107575;1254;80591;-51
2022/12/29 04:35:52;;;;;;;8.40;4.00;;;;;;;4.55;85.65;100020.89;107610;1257;80999;-59
2022/12/29 04:38:35;;;;;;;8.50;5.60;;;;;;;4.54;85.70;100041.03;107602;1257;98922;-60
2022/12/29 04:41:17;;;;;;;8.00;3.80;;;;;;;4.47;86.12;100044.91;107631;1255;87873;-59
2022/12/29 04:44:01;;;;;;;7.70;4.20;;;;;;;4.47;85.85;100036.79;107542;1254;94523;-58
2022/12/29 04:46:44;;;;;;;8.20;4.40;;;;;;;4.47;85.73;100037.84;107567;1254;82170;-46
2022/12/29 04:49:22;;;;;;;;;;;;;;;4.47;85.81;100039.39;107572;1254;83029;-58
2022/12/29 04:52:04;;;;;;;8.40;3.80;;;;;;;4.43;85.96;100047.46;107548;1254;97824;-59
2022/12/29 04:54:48;;;;;;;8.00;4.20;;;;;;;4.44;85.77;100027.46;107546;1254;87972;-60
2022/12/29 04:57:29;;;;;;;8.90;5.90;;;;;;;4.43;85.88;100021.30;107575;1254;95389;-59
2022/12/29 05:00:12;;;;;;;6.80;4.30;;;;;;;4.44;85.67;100014.98;107527;1254;80469;-54
2022/12/29 05:02:57;;;;;;;6.60;4.10;;;;;;;4.41;85.89;100013.10;107564;1254;81786;-57
2022/12/29 05:05:40;;;;;;;11.20;4.80;;;;;;;4.38;85.78;100015.05;107568;1253;99527;-59
2022/12/29 05:08:22;;;;;;;8.60;4.80;;;;;;;4.33;85.75;100015.22;107572;1253;88381;-60
2022/12/29 05:11:07;;;;;;;7.20;4.70;;;;;;;4.30;85.71;100017.63;107550;1253;95735;-58
2022/12/29 05:13:47;;;;;;;7.60;4.30;;;;;;;4.33;85.60;100009.75;107554;1257;82033;-61
2022/12/29 05:16:27;;;;;;;9.20;4.60;;;;;;;4.28;85.75;100008.80;107497;1254;80101;-51
2022/12/29 05:19:08;;;;;;;8.70;5.00;;;;;;;4.28;85.75;100011.48;107613;1254;96501;-57
2022/12/29 05:21:43;;;;;;;8.20;4.50;;;;;;;4.27;85.87;100004.77;107651;1254;89025;-61
2022/12/29 05:24:21;;;;;;;7.70;4.50;;;;;;;4.31;85.76;100004.27;107573;1257;93828;-59
2022/12/29 05:26:57;;;;;;;9.70;4.90;;;;;;;4.32;85.66;99989.82;107588;1254;79706;-60
2022/12/29 05:29:38;;;;;;;8.60;5.20;;;;;;;4.37;85.50;99995.35;107574;1253;82644;-60
2022/12/29 05:32:21;;;;;;;10.50;5.30;;;;;;;4.40;85.14;99992.59;107555;1255;96735;-59
2022/12/29 05:35:05;;;;;;;10.00;5.80;;;;;;;4.36;85.14;99985.80;107597;1254;86856;-62
2022/12/29 05:37:47;;;;;;;12.10;5.80;;;;;;;4.36;85.13;99983.72;107582;1255;94925;-57
2022/12/29 05:40:32;;;;;;;12.70;5.40;;;;;;;4.30;85.08;99987.60;107560;1254;79036;-59
2022/12/29 05:43:12;;;;;;;;;;;;;;;4.28;85.12;99986.01;107574;1257;83306;-57
2022/12/29 05:45:55;;;;;;;10.40;4.90;;;;;;;4.26;84.98;99983.74;107572;1254;99231;-59
2022/12/29 05:48:32;;;;;;;8.80;5.00;;;;;;;4.22;84.95;99975.39;107529;1254;88714;-59
2022/12/29 05:51:12;;;;;;;10.80;5.40;;;;;;;4.20;85.13;99974.35;107581;1254;95872;-57
2022/12/29 05:53:57;;;;;;;9.60;5.80;;;;;;;4.25;84.98;99974.98;107537;1254;79867;-58
2022/12/29 05:56:37;;;;;;;10.80;5.40;;;;;;;4.26;84.69;99977.82;107606;1254;82381;-60
2022/12/29 05:59:13;;;;;;;9.10;5.70;;;;;;;4.27;84.63;99983.63;107623;1253;96565;-59
2022/12/29 06:01:50;;;;;;;11.20;6.00;;;;;;;4.25;84.71;99972.23;107602;1254;88215;-50
2022/12/29 06:04:34;;;;;;;12.10;5.60;;;;;;;4.24;84.61;99969.11;107577;1254;95500;-56
2022/12/29 06:07:18;;;;;;;10.20;5.40;;;;;;;4.26;84.44;99972.64;107616;1254;80691;-59
2022/12/29 06:10:03;;;;;;;10.90;5.80;;;;;;;4.27;84.45;99973.59;107674;1253;82996;-59
2022/12/29 06:12:41;;;;;;;10.90;6.10;;;;;;;4.30;84.42;99973.84;107608;1254;97280;-59
2022/12/29 06:15:24;;;;;;;10.70;6.00;;;;;;;4.34;84.39;99979.84;107583;1253;87159;-59
2022/12/29 06:18:09;;;;;;;10.00;5.40;;;;;;;4.37;84.29;99978.98;107578;1254;92737;-56
2022/12/29 06:20:45;;;;;;;11.80;6.00;;;;;;;4.40;84.25;99974.38;107566;1253;79146;-57
2022/12/29 06:23:29;;;;;;;11.50;6.00;;;;;;;4.39;84.13;99973.27;107576;1254;81253;-49
2022/12/29 06:26:06;;;;;;;;;;;;;;;4.38;83.94;99971.90;107600;1257;97220;-59
2022/12/29 06:28:47;;;;;;;13.10;6.50;;;;;;;4.37;83.93;99971.46;107559;1254;87335;-58
2022/12/29 06:31:30;;;;;;;11.00;6.30;;;;;;;4.37;83.97;99974.83;107577;1257;93861;-58
2022/12/29 06:34:10;;;;;;;11.70;6.20;;;;;;;4.39;83.86;99980.96;107311;1254;272091;-58
2022/12/29 06:36:46;;;;;;;13.40;5.90;;;;;;;4.43;83.72;99982.63;107580;1254;83101;-60
2022/12/29 06:39:29;;;;;;;10.80;6.00;;;;;;;4.46;83.72;99989.11;107559;1254;98708;-60
2022/12/29 06:42:07;;;;;;;10.10;5.70;;;;;;;4.46;83.79;99995.84;107599;1253;86974;-59
2022/12/29 06:44:47;;;;;;;12.10;6.40;;;;;;;4.43;83.98;99996.11;107616;1253;92329;-59
2022/12/29 06:47:27;;;;;;;9.50;5.60;;;;;;;4.41;83.78;99997.98;107567;1254;81827;-59
2022/12/29 06:50:09;;;;;;;10.90;6.10;;;;;;;4.39;83.85;99991.63;107636;1254;82392;-59
2022/12/29 06:52:51;;;;;;;11.30;5.60;;;;;;;4.39;83.92;99996.94;107590;1254;98704;-55
2022/12/29 06:55:34;;;;;;;9.20;5.40;;;;;;;4.40;83.89;99994.34;107624;1257;88492;-49
2022/12/29 06:58:11;;;;;;;10.00;5.70;;;;;;;4.42;84.24;99991.61;107612;1253;95211;-59
2022/12/29 07:00:54;;;;;;;11.20;6.00;;;;;;;4.46;84.02;99981.27;107594;1257;79044;-58
2022/12/29 07:03:41;;;;;;;11.80;5.60;;;;;;;4.48;83.99;99985.87;107648;1254;81294;-58
2022/12/29 07:06:26;;;;;;;8.50;5.20;;;;;;;4.51;83.76;99982.65;107586;1253;97705;-57
2022/12/29 07:09:00;;;;;;;11.60;5.80;;;;;;;4.50;83.69;99977.80;107565;1253;89189;-54
2022/12/29 07:11:33;;;;;;;;;;;;;;;4.50;83.63;99977.23;107554;1257;95216;-59
2022/12/29 07:14:11;;;;;;;11.00;6.00;;;;;;;4.48;83.73;99969.92;107604;1253;80485;-59
2022/12/29 07:16:51;;;;;;;8.20;5.40;;;;;;;4.51;83.67;99970.14;107577;1257;82761;-59
2022/12/29 07:19:33;;;;;;;9.00;5.30;;;;;;;4.54;83.69;99964.11;107603;1254;98866;-59
2022/12/29 07:22:10;;;;;;;;;;;;;;;4.62;83.47;99962.40;107607;1253;87008;-58
2022/12/29 07:24:55;;;;;;;9.70;5.70;;;;;;;4.69;83.48;99956.64;107563;1253;95956;-58
2022/12/29 07:27:40;;;;;;;10.80;6.00;;;;;;;4.78;83.49;99958.33;107586;1255;79771;-48
2022/12/29 07:30:19;;;;;;;9.70;5.30;;;;;;;4.82;83.09;99958.48;107589;1253;81507;-60
2022/12/29 07:33:01;;;;;;;10.40;5.20;;;;;;;4.85;83.12;99959.09;107585;1253;99076;-58
2022/12/29 07:35:42;;;;;;;9.50;5.10;;;;;;;4.87;82.97;99960.99;107571;1254;88938;-58
2022/12/29 07:38:22;;;;;;;9.60;5.30;;;;;;;4.93;83.04;99960.54;107687;1254;95746;-59
2022/12/29 07:41:04;;;;;;;6.90;4.80;;;;;;;5.00;82.98;99961.36;107614;1254;80736;-58
2022/12/29 07:43:46;;;;;;;8.90;4.80;;;;;;;5.05;83.03;99959.55;107536;1253;82357;-56
2022/12/29 07:46:30;;;;;;;7.40;4.80;;;;;;;5.11;82.85;99964.39;107616;1253;99146;-59
2022/12/29 07:49:09;;;;;;;7.50;4.80;;;;;;;5.16;82.75;99957.92;107579;1253;89417;-60
2022/12/29 07:51:52;;;;;;;8.20;5.10;;;;;;;5.19;82.63;99958.65;107583;1254;93864;-51
2022/12/29 07:54:36;;;;;;;9.80;5.30;;;;;;;5.24;82.33;99957.31;107563;1253;79089;-57
2022/12/29 07:57:21;;;;;;;8.20;5.00;;;;;;;5.25;82.18;99953.77;107488;1253;84317;-47
2022/12/29 08:00:00;;;;;;;8.60;4.50;;;;;;;5.27;82.19;99951.69;107558;1253;98946;-59
2022/12/29 08:02:46;;;;;;;8.40;4.70;;;;;;;5.29;82.21;99946.14;107612;1252;90155;-58
2022/12/29 08:05:25;;;;;;;8.40;4.70;;;;;;;5.38;82.11;99941.42;107569;1254;95740;-59
2022/12/29 08:08:04;;;;;;;9.30;5.00;;;;;;;5.49;82.01;99940.61;107577;1253;79955;-59
2022/12/29 08:10:42;;;;;;;8.80;4.70;;;;;;;5.57;81.89;99937.19;107604;1254;81518;-59
2022/12/29 08:13:18;;;;;;;8.40;4.70;;;;;;;5.61;81.65;99938.70;107581;1253;98591;-56
2022/12/29 08:15:58;;;;;;;6.70;4.60;;;;;;;5.67;81.49;99942.92;107597;1253;89095;-61
2022/12/29 08:18:38;;;;;;;7.70;4.50;;;;;;;5.75;81.26;99940.70;107545;1253;93999;-59
2022/12/29 08:21:22;;;;;;;8.20;4.70;;;;;;;5.83;81.28;99944.11;107557;1253;80749;-60
2022/12/29 08:24:01;;;;;;;7.70;4.80;;;;;;;5.94;81.07;99945.27;107579;1253;81083;-62
2022/12/29 08:26:41;;;;;;;9.00;4.70;;;;;;;6.00;80.89;99950.77;107620;1254;98083;-59
2022/12/29 08:29:16;;;;;;;9.60;4.60;;;;;;;6.03;80.79;99948.75;107601;1252;88754;-59
2022/12/29 08:31:54;;;;;;;8.50;4.80;;;;;;;6.09;80.60;99948.40;107615;1257;92580;-59
2022/12/29 08:34:37;;;;;;;7.70;4.60;;;;;;;6.14;80.62;99947.08;107624;1253;79484;-59
2022/12/29 08:37:18;;;;;;;8.00;4.60;;;;;;;6.30;80.50;99956.75;107684;1253;82356;-59
2022/12/29 08:39:55;;;;;;;8.50;4.70;;;;;;;6.39;80.30;99958.67;107561;1257;99933;-61
2022/12/29 08:42:36;;;;;;;9.80;4.50;;;;;;;6.43;80.11;99963.58;107601;1254;87361;-61
2022/12/29 08:45:17;;;;;;;7.80;4.30;;;;;;;6.46;79.82;99972.40;107559;1253;95235;-60
2022/12/29 08:47:58;;;;;;;8.50;5.00;;;;;;;6.49;79.62;99971.15;107552;1253;78865;-60
2022/12/29 08:50:46;;;;;;;6.60;4.20;;;;;;;6.52;79.33;99964.02;107572;1253;83399;-59
2022/12/29 08:53:21;;;;;;;7.80;4.50;;;;;;;6.58;78.95;99963.00;107558;1253;96792;-59
2022/12/29 08:56:02;;;;;;;7.40;4.70;;;;;;;6.63;79.08;99965.64;107554;1254;87645;-60
2022/12/29 08:58:37;;;;;;;8.00;4.60;;;;;;;6.70;78.71;99962.14;107544;1253;92852;-60
2022/12/29 09:01:15;;;;;;;12.50;4.50;;;;;;;6.73;78.61;99958.02;107577;1253;78342;-59
2022/12/29 09:03:56;;;;;;;9.10;4.40;;;;;;;6.73;78.59;99959.63;107599;1253;82294;-60
2022/12/29 09:06:39;;;;;;;10.10;4.80;;;;;;;6.76;78.61;99957.37;107584;1254;97913;-57
2022/12/29 09:09:16;;;;;;;8.20;4.40;;;;;;;6.76;78.06;99951.95;107578;1254;87851;-59
2022/12/29 09:12:00;;;;;;;7.30;4.80;;;;;;;6.77;77.91;99949.30;107578;1253;95180;-60
2022/12/29 09:14:37;;;;;;;7.60;4.60;;;;;;;6.83;78.01;99951.15;107619;1253;78919;-59
2022/12/29 09:20:08;;;;;;;;;;;;;;;7.02;77.74;99941.70;107583;1253;99166;-59
2022/12/29 09:22:48;;;;;;;7.10;5.00;;;;;;;7.10;77.40;99941.19;107602;1254;88922;-56
2022/12/29 09:25:33;;;;;;;8.80;4.90;;;;;;;7.16;77.49;99943.03;107655;1253;93363;-55
2022/12/29 09:28:18;;;;;;;8.00;4.80;;;;;;;7.17;77.48;99936.02;107566;1253;78747;-60
2022/12/29 09:31:04;;;;;;;7.60;4.80;;;;;;;7.16;76.78;99937.42;107605;1253;82966;-59
2022/12/29 09:33:46;;;;;;;8.00;4.70;;;;;;;7.19;77.06;99940.29;107572;1253;97961;-54
2022/12/29 09:36:32;;;;;;;9.90;4.60;;;;;;;7.22;77.14;99934.56;107561;1253;88621;-54
2022/12/29 09:39:16;;;;;;;7.70;4.90;;;;;;;7.23;77.15;99934.98;107517;1253;94484;-51
2022/12/29 09:42:10;;;;;;;7.80;5.10;;;;;;;7.24;76.98;99933.63;107500;1256;78727;-61
2022/12/29 09:45:02;;;;;;;9.40;4.90;;;;;;;7.24;76.65;99926.08;107561;1253;81378;-59
2022/12/29 09:47:39;;;;;;;7.70;4.90;;;;;;;7.28;76.88;99921.64;107571;1254;97981;-60
2022/12/29 09:50:24;;;;;;;10.50;6.00;;;;;;;7.33;76.57;99925.37;107574;1254;88909;-59
2022/12/29 09:53:13;;;;;;;8.10;4.20;;;;;;;7.36;76.46;99919.80;107559;1253;95340;-59
2022/12/29 09:55:54;;;;;;;7.10;4.30;;;;;;;7.38;76.40;99920.45;107523;1253;80531;-53
2022/12/29 09:58:36;;;;;;;7.10;4.40;;;;;;;7.39;76.44;99917.67;107586;1253;81675;-54
2022/12/29 10:01:25;;;;;;;8.70;5.00;;;;;;;7.38;76.16;99917.42;107603;1253;98508;-59
2022/12/29 10:04:04;;;;;;;9.20;6.20;;;;;;;7.33;75.92;99913.52;107607;1253;89025;-58
2022/12/29 10:06:49;;;;;;;26.00;14.00;;;;;;;7.32;76.16;99907.75;107598;1253;93072;-60
2022/12/29 10:09:36;;;;;;;13.00;7.50;;;;;;;7.28;76.10;99908.45;107577;1253;79467;-60
2022/12/29 10:12:30;;;;;;;7.70;4.90;;;;;;;7.26;75.96;99904.02;107599;1253;83259;-59
2022/12/29 10:15:30;;;;;;;8.70;4.90;;;;;;;7.25;75.92;99901.48;107589;1253;98969;-58
2022/12/29 10:18:18;;;;;;;7.50;4.90;;;;;;;7.30;76.12;99896.20;107626;1253;86572;-59
2022/12/29 10:21:05;;;;;;;7.50;5.10;;;;;;;7.35;76.13;99888.11;107523;1253;93414;-55
2022/12/29 10:23:52;;;;;;;9.60;4.20;;;;;;;7.40;75.87;99888.73;107546;1253;78891;-53
2022/12/29 10:26:37;;;;;;;6.60;4.20;;;;;;;7.44;75.92;99893.40;107597;1256;82321;-61
2022/12/29 10:29:24;;;;;;;9.90;5.10;;;;;;;7.45;75.57;99892.71;107545;1253;98214;-60
2022/12/29 10:32:05;;;;;;;8.60;4.40;;;;;;;7.49;75.40;99894.39;107587;1253;87663;-56
2022/12/29 10:34:45;;;;;;;7.40;4.60;;;;;;;7.52;75.30;99888.52;107591;1253;93581;-53
2022/12/29 10:37:37;;;;;;;8.40;4.60;;;;;;;7.59;75.49;99883.34;107550;1253;78917;-62
2022/12/29 10:40:29;;;;;;;43.50;9.20;;;;;;;7.73;75.50;99886.75;107547;1254;81350;-59
2022/12/29 10:43:25;;;;;;;10.50;4.60;;;;;;;7.84;75.34;99882.52;107554;1253;96911;-60
2022/12/29 10:46:13;;;;;;;8.30;4.10;;;;;;;7.89;74.94;99876.93;107533;1253;89135;-55
2022/12/29 10:48:52;;;;;;;8.50;4.70;;;;;;;7.94;74.66;99874.14;107548;1253;94965;-55
2022/12/29 10:51:38;;;;;;;83.40;10.50;;;;;;;7.95;74.43;99878.67;107544;1257;78997;-61
2022/12/29 10:54:22;;;;;;;7.90;4.40;;;;;;;7.93;73.71;99877.25;107567;1253;83693;-59
2022/12/29 10:57:05;;;;;;;16.00;5.40;;;;;;;7.92;74.25;99875.20;107607;1253;97698;-60
2022/12/29 10:59:41;;;;;;;8.50;5.00;;;;;;;7.95;74.16;99871.89;107606;1253;88212;-58
2022/12/29 11:02:52;;;;;;;12.00;6.10;;;;;;;7.93;73.92;99875.63;107656;1253;94421;-57
2022/12/29 11:05:46;;;;;;;22.90;6.30;;;;;;;7.94;73.87;99873.24;107612;1254;81423;-61
2022/12/29 11:08:26;;;;;;;12.40;4.70;;;;;;;7.97;73.92;99873.38;107638;1253;83177;-62
2022/12/29 11:11:10;;;;;;;7.40;4.70;;;;;;;8.00;73.83;99870.56;107625;1253;98587;-60
2022/12/29 11:13:57;;;;;;;7.20;4.40;;;;;;;8.03;73.59;99863.48;107544;1253;88876;-62
2022/12/29 11:16:37;;;;;;;8.40;4.80;;;;;;;8.06;73.66;99858.64;107543;1254;94092;-57
2022/12/29 11:19:28;;;;;;;10.20;4.90;;;;;;;8.07;73.65;99865.29;107565;1253;80173;-61
2022/12/29 11:22:24;;;;;;;8.40;4.70;;;;;;;8.07;73.41;99856.62;107613;1253;82336;-59
2022/12/29 11:25:16;;;;;;;12.60;4.50;;;;;;;8.03;73.47;99859.30;107511;1253;98975;-59
2022/12/29 11:28:17;;;;;;;13.90;6.20;;;;;;;8.03;73.19;99859.10;107591;1252;86614;-60
2022/12/29 11:31:03;;;;;;;7.30;4.30;;;;;;;8.03;73.22;99863.31;107610;1253;95630;-59
2022/12/29 11:33:47;;;;;;;8.80;4.50;;;;;;;8.03;73.44;99868.56;107623;1253;78413;-60
2022/12/29 11:36:29;;;;;;;7.80;4.50;;;;;;;8.03;73.52;99870.14;107617;1253;82184;-61
2022/12/29 11:39:27;;;;;;;7.80;4.50;;;;;;;7.97;73.23;99869.94;107545;1253;98152;-63
2022/12/29 11:42:16;;;;;;;7.20;4.60;;;;;;;7.97;73.43;99868.41;107581;1253;88360;-61
2022/12/29 11:45:05;;;;;;;33.20;7.80;;;;;;;7.96;73.37;99872.53;107559;1252;94626;-60
2022/12/29 11:47:49;;;;;;;12.30;5.80;;;;;;;7.96;73.25;99871.16;107613;1253;79434;-61
2022/12/29 11:50:36;;;;;;;7.80;4.60;;;;;;;7.97;73.54;99872.83;107614;1253;83269;-60
2022/12/29 11:53:26;;;;;;;11.50;5.20;;;;;;;8.00;73.41;99868.23;107640;1253;97378;-61
2022/12/29 11:56:08;;;;;;;8.10;4.90;;;;;;;8.00;73.54;99866.17;107602;1253;88910;-59
2022/12/29 11:58:49;;;;;;;9.60;5.10;;;;;;;7.98;73.10;99862.46;107583;1253;93195;-60
2022/12/29 12:01:37;;;;;;;22.80;6.40;;;;;;;7.97;73.24;99860.83;107603;1253;77993;-60
2022/12/29 12:04:21;;;;;;;8.90;4.90;;;;;;;8.00;73.42;99860.86;107606;1253;83952;-61
2022/12/29 12:07:20;;;;;;;8.40;4.80;;;;;;;8.01;73.48;99859.45;107568;1253;98384;-57
2022/12/29 12:10:08;;;;;;;7.60;5.30;;;;;;;8.06;73.43;99852.75;107608;1253;88636;-55
2022/12/29 12:12:53;;;;;;;7.80;4.90;;;;;;;8.10;73.50;99850.23;107619;1253;93154;-60
2022/12/29 12:15:38;;;;;;;7.40;4.60;;;;;;;8.16;73.36;99850.28;107577;1256;80612;-56
2022/12/29 12:18:28;;;;;;;9.30;4.40;;;;;;;8.20;73.50;99849.68;107547;1252;82421;-58
2022/12/29 12:21:16;;;;;;;7.40;4.30;;;;;;;8.25;73.22;99853.07;107554;1253;98116;-61
2022/12/29 12:24:19;;;;;;;6.90;4.30;;;;;;;8.28;72.98;99852.38;107557;1253;89461;-59
2022/12/29 12:27:06;;;;;;;6.50;4.50;;;;;;;8.28;73.25;99843.86;107550;1253;95475;-59
2022/12/29 12:29:54;;;;;;;7.80;4.40;;;;;;;8.28;72.85;99843.02;107545;1253;78823;-56
2022/12/29 12:32:43;;;;;;;8.40;4.70;;;;;;;8.27;72.70;99834.65;107567;1253;83277;-59
2022/12/29 12:35:33;;;;;;;7.30;4.10;;;;;;;8.28;72.82;99835.69;107578;1253;97290;-54
2022/12/29 12:38:33;;;;;;;8.40;4.40;;;;;;;8.30;72.95;99828.40;107582;1253;88278;-60
2022/12/29 12:41:20;;;;;;;7.60;4.00;;;;;;;8.34;72.82;99827.45;107554;1253;94075;-60
2022/12/29 12:44:11;;;;;;;8.40;4.30;;;;;;;8.36;72.88;99829.58;107583;1253;78745;-60
2022/12/29 12:47:22;;;;;;;8.90;4.60;;;;;;;8.36;72.42;99830.54;107607;1254;81428;-60
2022/12/29 12:50:42;;;;;;;9.70;5.90;;;;;;;8.37;72.58;99826.90;107596;1253;97415;-60
2022/12/29 12:53:49;;;;;;;7.60;4.50;;;;;;;8.37;72.49;99821.52;107640;1253;88781;-59
2022/12/29 12:57:00;;;;;;;8.50;4.70;;;;;;;8.37;72.18;99822.59;107606;1253;94730;-55
2022/12/29 12:59:58;;;;;;;9.10;5.10;;;;;;;8.38;72.37;99817.92;107554;1253;79965;-59
2022/12/29 13:02:57;;;;;;;8.10;4.70;;;;;;;8.40;72.24;99820.81;107562;1252;82276;-60
2022/12/29 13:06:06;;;;;;;8.00;4.70;;;;;;;8.41;72.34;99827.36;107464;1253;99722;-61
2022/12/29 13:09:20;;;;;;;8.70;4.80;;;;;;;8.41;72.40;99826.91;107562;1254;88734;-60
2022/12/29 13:12:17;;;;;;;8.80;4.90;;;;;;;8.41;72.33;99820.95;107529;1254;95352;-58
2022/12/29 13:15:14;;;;;;;9.20;5.20;;;;;;;8.46;72.32;99819.48;107565;1256;80051;-59
2022/12/29 13:18:09;;;;;;;7.90;4.60;;;;;;;8.52;72.35;99821.90;107517;1253;83135;-53
2022/12/29 13:20:54;;;;;;;8.60;5.10;;;;;;;8.56;72.32;99819.77;107546;1254;98727;-60
2022/12/29 13:23:40;;;;;;;12.80;8.90;;;;;;;8.59;72.12;99821.23;107584;1256;87754;-60
2022/12/29 13:26:25;;;;;;;8.70;5.30;;;;;;;8.59;71.97;99823.48;107566;1253;95337;-58
2022/12/29 13:29:06;;;;;;;;;;;;;;;8.60;71.93;99825.91;107630;1254;80174;-55